createdAt,value
2022-12-01T07:02:52.985Z,103012.72
2022-12-01T07:05:19.610Z,103012.44
2022-12-01T07:07:46.334Z,103018.91
2022-12-01T07:10:14.164Z,103011.75
2022-12-01T07:12:40.816Z,103017.94
2022-12-01T07:15:09.021Z,103024.22
2022-12-01T07:17:35.988Z,103019.72
2022-12-01T07:20:04.075Z,103029.44
2022-12-01T07:22:32.802Z,103031.50
2022-12-01T07:24:59.615Z,103033.97
2022-12-01T07:27:29.704Z,103042.19
2022-12-01T07:29:56.096Z,103038.63
2022-12-01T07:32:22.596Z,103044.94
2022-12-01T07:34:49.111Z,103044.25
2022-12-01T07:37:15.622Z,103051.81
2022-12-01T07:39:42.070Z,103049.03
2022-12-01T07:42:08.620Z,103058.38
2022-12-01T07:44:35.130Z,103051.94
2022-12-01T07:47:01.575Z,103053.44
2022-12-01T07:49:28.288Z,103054.69
2022-12-01T07:51:54.712Z,103057.16
2022-12-01T07:54:21.412Z,103060.06
2022-12-01T07:56:47.896Z,103062.91
2022-12-01T07:59:14.434Z,103064.81
2022-12-01T08:01:44.484Z,103066.06
2022-12-01T08:04:12.080Z,103069.63
2022-12-01T08:06:38.594Z,103076.88
2022-12-01T08:09:05.148Z,103069.72
2022-12-01T08:11:31.682Z,103077.53
2022-12-01T08:13:58.505Z,103066.25
2022-12-01T08:16:25.458Z,103069.00
2022-12-01T08:18:52.895Z,103072.81
2022-12-01T08:21:21.689Z,103072.09
2022-12-01T08:23:48.629Z,103081.81
2022-12-01T08:26:17.953Z,103074.38
2022-12-01T08:28:45.481Z,103077.25
2022-12-01T08:31:22.752Z,103087.25
2022-12-01T08:33:51.106Z,103086.66
2022-12-01T08:36:18.306Z,103090.50
2022-12-01T08:38:45.988Z,103090.19
2022-12-01T08:41:13.631Z,103085.38
2022-12-01T08:43:57.320Z,103088.50
2022-12-01T08:46:26.232Z,103086.28
2022-12-01T08:48:55.068Z,103091.09
2022-12-01T08:51:21.622Z,103088.19
2022-12-01T08:53:49.485Z,103090.31
2022-12-01T08:56:17.513Z,103096.91
2022-12-01T08:58:44.069Z,103089.75
2022-12-01T09:01:13.055Z,103085.88
2022-12-01T09:03:40.514Z,103088.06
2022-12-01T09:06:13.489Z,103090.22
2022-12-01T09:08:40.260Z,103089.94
2022-12-01T09:11:11.682Z,103085.53
2022-12-01T09:13:39.676Z,103084.41
2022-12-01T09:16:10.320Z,103084.13
2022-12-01T09:18:37.360Z,103093.13
2022-12-01T09:21:19.001Z,103092.31
2022-12-01T09:23:46.009Z,103093.94
2022-12-01T09:26:14.018Z,103089.53
2022-12-01T09:28:40.585Z,103092.97
2022-12-01T09:31:09.287Z,103091.03
2022-12-01T09:33:36.330Z,103090.22
2022-12-01T09:36:04.059Z,103086.78
2022-12-01T09:38:32.107Z,103086.50
2022-12-01T09:41:05.864Z,103085.38
2022-12-01T09:43:49.362Z,103085.91
2022-12-01T09:46:20.458Z,103084.78
2022-12-01T09:48:49.678Z,103073.19
2022-12-01T09:51:19.129Z,103074.53
2022-12-01T09:53:48.489Z,103076.19
2022-12-01T09:56:22.793Z,103063.63
2022-12-01T09:58:53.937Z,103059.06
2022-12-01T10:01:27.398Z,103056.00
2022-12-01T10:03:59.168Z,103051.94
2022-12-01T10:06:44.470Z,103047.69
2022-12-01T10:09:29.949Z,103048.34
2022-12-01T10:12:20.604Z,103047.59
2022-12-01T10:14:48.616Z,103048.09
2022-12-01T10:17:33.099Z,103059.31
2022-12-01T10:20:10.777Z,103053.47
2022-12-01T10:23:18.211Z,103056.00
2022-12-01T10:26:14.648Z,103052.81
2022-12-01T10:28:50.486Z,103053.13
2022-12-01T10:31:23.699Z,103055.13
2022-12-01T10:33:59.598Z,103058.56
2022-12-01T10:36:28.388Z,103061.50
2022-12-01T10:38:55.183Z,103063.00
2022-12-01T10:41:23.821Z,103058.22
2022-12-01T10:44:00.722Z,103051.53
2022-12-01T10:46:49.151Z,103048.09
2022-12-01T10:49:17.525Z,103058.22
2022-12-01T10:51:56.577Z,103055.31
2022-12-01T10:54:32.588Z,103050.41
2022-12-01T10:56:59.490Z,103057.31
2022-12-01T10:59:46.696Z,103059.72
2022-12-01T11:02:22.107Z,103052.53
2022-12-01T11:05:01.169Z,103048.72
2022-12-01T11:07:35.105Z,103044.97
2022-12-01T11:10:19.535Z,103049.22
2022-12-01T11:12:55.906Z,103042.88
2022-12-01T11:15:38.410Z,103038.94
2022-12-01T11:18:26.548Z,103039.91
2022-12-01T11:21:27.902Z,103048.56
2022-12-01T11:23:56.555Z,103040.75
2022-12-01T12:22:55.431Z,102988.09
2022-12-01T12:49:19.778Z,102986.91
2022-12-01T13:20:23.923Z,102962.47
2022-12-01T13:27:50.806Z,102960.69
2022-12-01T13:34:26.186Z,102957.59
2022-12-01T13:41:45.397Z,102960.69
2022-12-01T13:48:00.282Z,102951.31
2022-12-01T13:55:09.430Z,102955.44
2022-12-01T14:02:08.503Z,102946.56
2022-12-01T14:04:35.128Z,102941.66
2022-12-01T14:12:02.701Z,102937.38
2022-12-01T14:14:36.926Z,102937.69
2022-12-01T14:17:04.524Z,102931.63
2022-12-01T14:24:41.524Z,102928.00
2022-12-01T14:27:11.771Z,102933.72
2022-12-01T14:29:42.656Z,102930.59
2022-12-01T14:32:22.425Z,102930.75
2022-12-01T14:39:03.402Z,102925.34
2022-12-01T14:45:18.735Z,102932.06
2022-12-01T14:47:52.592Z,102936.13
2022-12-01T14:50:51.937Z,102944.31
2022-12-01T14:57:17.570Z,102939.03
2022-12-01T15:03:48.260Z,102934.38
2022-12-01T15:10:16.246Z,102941.50
2022-12-01T15:12:42.778Z,102939.34
2022-12-01T15:15:22.292Z,102942.13
2022-12-01T15:18:57.684Z,102942.06
2022-12-01T15:21:31.080Z,102929.66
2022-12-01T15:24:03.352Z,102930.31
2022-12-01T15:30:19.236Z,102928.50
2022-12-01T15:36:42.280Z,102931.38
2022-12-01T15:42:59.540Z,102947.06
2022-12-01T15:53:07.332Z,102961.56
2022-12-01T15:55:36.125Z,102956.50
2022-12-01T15:58:07.628Z,102965.75
2022-12-01T16:00:34.613Z,102957.97
2022-12-01T16:03:48.013Z,102962.47
2022-12-01T16:06:14.632Z,102958.78
2022-12-01T16:09:30.136Z,102961.44
2022-12-01T16:15:58.521Z,102958.81
2022-12-01T16:22:22.028Z,102965.59
2022-12-01T16:25:00.659Z,102962.75
2022-12-01T16:27:30.022Z,102968.25
2022-12-01T16:30:08.719Z,102963.72
2022-12-01T16:36:43.706Z,102970.16
2022-12-01T16:39:10.204Z,102973.28
2022-12-01T16:41:41.151Z,102966.44
2022-12-01T16:46:56.644Z,102963.97
2022-12-01T16:49:24.623Z,102963.16
2022-12-01T16:51:56.492Z,102958.69
2022-12-01T16:54:23.550Z,102955.84
2022-12-01T16:56:50.196Z,102956.25
2022-12-01T16:59:16.675Z,102960.38
2022-12-01T17:01:43.232Z,102950.78
2022-12-01T17:04:09.792Z,102947.97
2022-12-01T17:06:38.356Z,102959.63
2022-12-01T17:09:05.740Z,102956.88
2022-12-01T17:11:32.476Z,102954.56
2022-12-01T17:13:59.081Z,102956.63
2022-12-01T17:16:25.607Z,102952.50
2022-12-01T17:18:52.194Z,102954.16
2022-12-01T17:21:18.941Z,102955.69
2022-12-01T17:23:45.428Z,102950.91
2022-12-01T17:26:14.725Z,102957.59
2022-12-01T17:28:41.940Z,102958.16
2022-12-01T17:31:09.471Z,102958.28
2022-12-01T17:33:36.655Z,102954.44
2022-12-01T17:36:13.607Z,102948.97
2022-12-01T17:38:41.997Z,102952.53
2022-12-01T17:41:15.628Z,102954.47
2022-12-01T17:43:42.490Z,102948.16
2022-12-01T17:46:11.815Z,102955.13
2022-12-01T17:48:41.691Z,102955.25
2022-12-01T17:51:09.011Z,102952.66
2022-12-01T17:53:36.674Z,102953.03
2022-12-01T17:56:10.204Z,102953.72
2022-12-01T17:58:37.395Z,102958.78
2022-12-01T18:01:05.139Z,102947.41
2022-12-01T18:03:32.363Z,102957.66
2022-12-01T18:06:01.131Z,102955.59
2022-12-01T18:08:29.708Z,102958.75
2022-12-01T18:11:01.173Z,102951.22
2022-12-01T18:13:27.774Z,102951.59
2022-12-01T18:15:55.407Z,102956.13
2022-12-01T18:18:21.943Z,102950.06
2022-12-01T18:20:48.412Z,102951.59
2022-12-01T18:23:14.868Z,102953.50
2022-12-01T18:25:41.364Z,102953.75
2022-12-01T18:28:10.816Z,102946.22
2022-12-01T18:30:38.686Z,102951.81
2022-12-01T18:33:06.551Z,102946.31
2022-12-01T18:35:33.074Z,102948.91
2022-12-01T18:37:59.493Z,102950.13
2022-12-01T18:40:25.950Z,102949.56
2022-12-01T18:42:52.477Z,102952.28
2022-12-01T18:45:21.255Z,102952.97
2022-12-01T18:47:48.102Z,102956.53
2022-12-01T18:50:14.858Z,102957.88
2022-12-01T18:52:41.448Z,102957.19
2022-12-01T18:55:08.228Z,102955.56
2022-12-01T18:57:34.827Z,102953.09
2022-12-01T19:00:01.828Z,102952.00
2022-12-01T19:02:28.459Z,102959.63
2022-12-01T19:04:54.974Z,102959.22
2022-12-01T19:07:25.240Z,102957.47
2022-12-01T19:09:55.942Z,102956.88
2022-12-01T19:12:22.406Z,102964.31
2022-12-01T19:14:49.121Z,102957.88
2022-12-01T19:17:15.748Z,102957.72
2022-12-01T19:19:42.236Z,102961.72
2022-12-01T19:22:08.742Z,102959.69
2022-12-01T19:24:35.268Z,102951.50
2022-12-01T19:27:01.792Z,102946.59
2022-12-01T19:29:28.435Z,102955.66
2022-12-01T19:31:55.399Z,102953.75
2022-12-01T19:34:22.188Z,102950.91
2022-12-01T19:36:49.848Z,102954.34
2022-12-01T19:39:16.374Z,102950.94
2022-12-01T19:41:43.063Z,102955.50
2022-12-01T19:44:11.238Z,102952.50
2022-12-01T19:46:37.782Z,102947.53
2022-12-01T19:49:05.704Z,102945.50
2022-12-01T19:51:35.298Z,102943.19
2022-12-01T19:54:03.019Z,102948.56
2022-12-01T19:56:29.548Z,102951.56
2022-12-01T19:58:57.288Z,102948.28
2022-12-01T20:01:23.916Z,102954.56
2022-12-01T20:03:52.214Z,102953.34
2022-12-01T20:10:53.925Z,102957.47
2022-12-01T20:13:20.565Z,102949.38
2022-12-01T20:15:46.989Z,102956.50
2022-12-01T20:18:14.868Z,102953.59
2022-12-01T20:20:41.528Z,102944.28
2022-12-01T20:23:08.265Z,102952.22
2022-12-01T20:25:34.813Z,102950.03
2022-12-01T20:28:01.473Z,102952.22
2022-12-01T20:30:27.969Z,102949.34
2022-12-01T20:32:54.388Z,102951.41
2022-12-01T20:35:20.889Z,102949.63
2022-12-01T20:37:47.322Z,102951.41
2022-12-01T20:40:13.817Z,102953.72
2022-12-01T20:42:40.385Z,102957.03
2022-12-01T20:45:07.515Z,102961.81
2022-12-01T20:47:36.732Z,102958.81
2022-12-01T20:50:05.742Z,102955.47
2022-12-01T20:52:32.256Z,102956.69
2022-12-01T20:54:58.850Z,102952.16
2022-12-01T20:57:25.396Z,102942.56
2022-12-01T20:59:52.124Z,102945.84
2022-12-01T21:02:18.637Z,102944.59
2022-12-01T21:05:12.389Z,102938.97
2022-12-01T21:07:38.976Z,102943.31
2022-12-01T21:10:06.463Z,102930.97
2022-12-01T21:12:51.594Z,102931.94
2022-12-01T21:15:25.434Z,102930.97
2022-12-01T21:18:08.872Z,102942.22
2022-12-01T21:20:44.076Z,102933.94
2022-12-01T21:23:12.985Z,102927.06
2022-12-01T21:25:40.729Z,102924.19
2022-12-01T21:28:19.005Z,102930.91
2022-12-01T21:30:49.763Z,102921.28
2022-12-01T21:33:28.586Z,102914.44
2022-12-01T21:35:55.857Z,102910.19
2022-12-01T21:38:22.903Z,102909.91
2022-12-01T21:40:49.553Z,102912.50
2022-12-01T21:43:24.696Z,102908.25
2022-12-01T21:45:58.045Z,102907.44
2022-12-01T21:48:24.806Z,102908.09
2022-12-01T21:50:59.566Z,102912.34
2022-12-01T21:53:32.166Z,102909.75
2022-12-01T21:55:58.661Z,102910.56
2022-12-01T21:58:31.068Z,102910.56
2022-12-01T22:00:58.969Z,102902.75
2022-12-01T22:04:02.901Z,102901.78
2022-12-01T22:06:38.675Z,102907.53
2022-12-01T22:09:33.394Z,102901.19
2022-12-01T22:12:13.761Z,102895.84
2022-12-01T22:14:40.244Z,102899.13
2022-12-01T22:17:06.678Z,102904.19
2022-12-01T22:19:35.807Z,102901.44
2022-12-01T22:22:09.517Z,102900.34
2022-12-01T22:24:41.033Z,102897.59
2022-12-01T22:27:38.172Z,102883.63
2022-12-01T22:30:07.843Z,102894.47
2022-12-01T22:32:59.243Z,102885.38
2022-12-01T22:35:45.254Z,102897.00
2022-12-01T22:38:37.799Z,102887.25
2022-12-01T22:41:09.154Z,102887.09
2022-12-01T22:43:47.429Z,102889.56
2022-12-01T22:46:34.597Z,102889.25
2022-12-01T22:49:03.249Z,102889.13
2022-12-01T22:51:42.174Z,102890.91
2022-12-01T22:54:14.658Z,102890.91
2022-12-01T22:56:46.951Z,102890.91
2022-12-01T22:59:13.758Z,102890.22
2022-12-01T23:01:48.064Z,102891.19
2022-12-01T23:04:39.938Z,102891.88
2022-12-01T23:07:41.498Z,102892.03
2022-12-01T23:10:17.220Z,102889.56
2022-12-01T23:12:45.723Z,102885.31
2022-12-01T23:15:17.909Z,102884.47
2022-12-01T23:17:44.551Z,102875.16
2022-12-01T23:20:11.108Z,102881.06
2022-12-01T23:22:38.317Z,102875.84
2022-12-01T23:25:16.881Z,102875.97
2022-12-01T23:27:45.290Z,102877.91
2022-12-01T23:30:13.079Z,102872.84
2022-12-01T23:32:40.034Z,102876.28
2022-12-01T23:35:18.869Z,102874.63
2022-12-01T23:37:48.249Z,102871.19
2022-12-01T23:40:31.349Z,102875.75
2022-12-01T23:43:12.889Z,102871.34
2022-12-01T23:45:39.383Z,102870.53
2022-12-01T23:48:13.816Z,102863.66
2022-12-01T23:50:40.348Z,102858.44
2022-12-01T23:53:32.976Z,102862.03
2022-12-01T23:56:11.398Z,102854.19
2022-12-01T23:58:37.927Z,102862.03
